Airfield :
LOGIN :

Register | Disclaimer

   EN    FR    IT 

 










Legend :    VFR   Marginal VFR   IFR   Intensive IFR   Very Intensive IFR
Visi :
Ceiling :
>= 8 km
>= 3000ft
5 to 8 km
1000 to 3000 ft
1500m to 5 km
500 to 1000 ft
800 to 1500m
200 to 500 ft
< 800m
< 200 ft
Symbols :   Thunderstorms  Fog  Heavy snow  Heavy precipitations  Wind > 20 kt
SIGMETs :     Misc.  Thunderstorms  Icing  Turbulence  Mountain Waves  Volcanic Ashes







- Airport Elevation : 600 ft
- IATA code : VIE


LOWW - Vienna Schwechat

CURRENT METAR :
  • 251220Z 36011KT 9999 FEW050 BKN300 21/07 Q1006 NOSIG

EXPIRED METARs :
  • 251150Z 36010KT 320V040 9999 FEW050 BKN300 21/09 Q1006 NOSIG
  • 251120Z 03003KT 330V100 9999 FEW050 BKN300 21/08 Q1006 NOSIG
  • 251050Z VRB04KT 9999 FEW048 BKN300 20/07 Q1007 NOSIG
  • 251020Z 13008KT 9999 FEW045 BKN300 20/07 Q1007 NOSIG
  • 250950Z 14008KT 100V160 9999 FEW038 BKN300 19/08 Q1007 NOSIG
  • 250920Z 13009KT 100V160 9999 FEW035 BKN300 18/09 Q1007 NOSIG

TAF TAF LOWW
Valid from the 25 at 12:00 until the 26 at 18:00 UTC


251115Z 2512/2618 02004KT 9999 FEW050 SCT300 TX22/2513Z TN09/2605Z
BECMG 2514/2516 16007KT
TEMPO 2515/2520 18012G22KT
TEMPO 2520/2602 25007KT
FM260200 VRB02KT 9999 SCT050
BECMG 2605/2607 20010KT CAVOK
TEMPO 2609/2618 18015G25KT
No reported NOTAMs for that airfield.



MET'MAP, your aeronautical weather chart ! - Copyright ORBIFLY December 2007 - Disclaimer

ORBIFLY MET'MAP TEAM :

Programming & Development : Alexandra Zaïnal
Concept & Development : Baudouin d'Aumeries
Co-Development & Prog : Marc-Olivier Méhu
Technical & hardware support : Manuel Goepfert

Contact : metmap@orbifly.com




SOURCES & CREDITS :

   NOAA